Time;durP1;ratioP1;P1;durP2;ratioP2;P2;SDS_P1;SDS_P2;PMS_P1;PMS_P2;Temp;Humidity;BMP_temperature;BMP_pressure;BME280_temperature;BME280_humidity;BME280_pressure;Samples;Min_cycle;Max_cycle;Signal;HPM_P1;HPM_P2
2023/09/02 00:00:41;;;;;;;16.08;8.70;;;16.10;99.90;;;;;;6158829;23;20013;-86
2023/09/02 00:03:07;;;;;;;12.95;8.70;;;16.00;99.90;;;;;;6158592;23;20060;-87
2023/09/02 00:05:32;;;;;;;17.05;14.20;;;15.90;99.90;;;;;;6133639;23;20016;-87
2023/09/02 00:07:58;;;;;;;16.60;14.80;;;15.90;99.90;;;;;;6133348;23;20143;-88
2023/09/02 00:10:23;;;;;;;18.05;16.25;;;16.00;99.90;;;;;;6158175;23;20020;-87
2023/09/02 00:12:49;;;;;;;16.25;8.82;;;16.00;99.90;;;;;;6133988;23;20013;-87
2023/09/02 00:15:16;;;;;;;17.10;10.77;;;16.00;99.90;;;;;;6158213;23;20355;-87
2023/09/02 00:17:41;;;;;;;16.73;14.65;;;15.90;99.90;;;;;;6158332;23;20023;-87
2023/09/02 00:20:08;;;;;;;17.33;15.35;;;15.90;99.90;;;;;;6158124;23;20088;-88
2023/09/02 00:22:34;;;;;;;18.25;16.23;;;16.00;99.90;;;;;;6158300;23;20138;-87
2023/09/02 00:24:59;;;;;;;17.90;16.10;;;16.00;99.90;;;;;;6133373;23;20450;-87
2023/09/02 00:27:25;;;;;;;14.90;9.40;;;16.00;99.90;;;;;;6158016;23;20055;-87
2023/09/02 00:29:51;;;;;;;18.27;16.20;;;15.90;99.90;;;;;;6158158;23;20017;-87
2023/09/02 00:32:16;;;;;;;15.20;13.65;;;15.90;99.90;;;;;;6158129;23;20020;-87
2023/09/02 00:34:42;;;;;;;12.25;7.10;;;15.90;99.90;;;;;;6157947;23;20088;-87
2023/09/02 00:37:08;;;;;;;11.95;7.93;;;15.80;99.90;;;;;;6158089;23;20091;-88
2023/09/02 00:39:34;;;;;;;17.10;13.75;;;15.70;99.90;;;;;;6157861;23;20017;-88
2023/09/02 00:42:01;;;;;;;14.25;8.68;;;15.70;99.90;;;;;;6158073;23;20009;-87
2023/09/02 00:44:26;;;;;;;14.10;8.85;;;15.70;99.90;;;;;;6158059;23;20084;-87
2023/09/02 00:46:52;;;;;;;15.90;14.05;;;15.70;99.90;;;;;;6133241;23;20056;-87
2023/09/02 00:49:22;;;;;;;16.80;15.10;;;15.70;99.90;;;;;;6133502;23;20020;-87
2023/09/02 00:51:47;;;;;;;13.60;8.73;;;15.80;99.90;;;;;;6158362;23;20009;-87
2023/09/02 00:54:13;;;;;;;18.98;16.33;;;15.70;99.90;;;;;;6133112;23;20417;-88
2023/09/02 00:56:40;;;;;;;13.82;8.38;;;15.80;99.90;;;;;;6157796;23;20100;-88
2023/09/02 00:59:06;;;;;;;16.27;14.43;;;15.70;99.90;;;;;;6157612;23;20011;-88
2023/09/02 01:01:36;;;;;;;15.18;9.05;;;15.80;99.90;;;;;;6158156;23;20013;-87
2023/09/02 01:04:03;;;;;;;17.92;16.20;;;15.70;99.90;;;;;;6158079;23;20013;-87
2023/09/02 01:06:29;;;;;;;21.55;19.35;;;15.70;99.90;;;;;;6157694;23;20482;-87
2023/09/02 01:08:55;;;;;;;15.98;10.63;;;15.80;99.90;;;;;;6157458;23;20017;-87
2023/09/02 01:11:20;;;;;;;19.17;17.25;;;15.80;99.90;;;;;;6133237;23;20071;-87
2023/09/02 01:13:46;;;;;;;15.63;9.27;;;15.80;99.90;;;;;;6157793;23;20013;-87
2023/09/02 01:16:12;;;;;;;20.25;18.15;;;15.80;99.90;;;;;;6157587;23;20092;-87
2023/09/02 01:18:37;;;;;;;14.02;9.65;;;15.80;99.90;;;;;;6157711;23;20013;-87
2023/09/02 01:21:44;;;;;;;19.63;16.48;;;15.70;99.90;;;;;;6157416;23;20009;-87
2023/09/02 01:24:45;;;;;;;22.27;20.02;;;15.80;99.90;;;;;;6133133;23;20013;-87
2023/09/02 01:27:28;;;;;;;17.15;9.38;;;15.80;99.90;;;;;;6133284;23;20505;-88
2023/09/02 01:30:03;;;;;;;13.75;9.82;;;15.80;99.90;;;;;;6157920;23;20021;-88
2023/09/02 01:32:33;;;;;;;18.90;16.15;;;15.70;99.90;;;;;;6157615;23;20013;-87
2023/09/02 01:35:04;;;;;;;16.30;14.60;;;15.70;99.90;;;;;;6132748;23;20472;-88
2023/09/02 01:37:32;;;;;;;15.73;8.90;;;15.80;99.90;;;;;;6133149;23;20005;-88
2023/09/02 01:39:59;;;;;;;12.57;7.13;;;15.70;99.90;;;;;;6156686;23;20016;-88
2023/09/02 01:42:25;;;;;;;15.35;13.20;;;15.70;99.90;;;;;;6160352;23;20013;-87
2023/09/02 01:44:52;;;;;;;15.52;13.30;;;15.70;99.90;;;;;;6158254;23;20382;-87
2023/09/02 01:47:17;;;;;;;12.43;7.50;;;15.70;99.90;;;;;;6158092;23;20351;-87
2023/09/02 01:49:46;;;;;;;16.73;13.75;;;15.70;99.90;;;;;;6157632;23;20020;-87
2023/09/02 01:52:14;;;;;;;16.13;14.52;;;15.70;99.90;;;;;;6132645;23;20473;-86
2023/09/02 01:54:40;;;;;;;14.93;8.40;;;15.70;99.90;;;;;;6157781;23;20023;-87
2023/09/02 01:57:06;;;;;;;14.00;9.20;;;15.70;99.90;;;;;;6133011;23;20581;-86
2023/09/02 01:59:32;;;;;;;16.88;15.07;;;15.60;99.90;;;;;;6156988;23;20041;-87
2023/09/02 02:01:57;;;;;;;17.33;15.45;;;15.60;99.90;;;;;;6133068;23;20009;-87
2023/09/02 02:04:35;;;;;;;14.52;9.10;;;15.70;99.90;;;;;;6132821;23;20160;-87
2023/09/02 02:07:06;;;;;;;13.98;8.30;;;15.60;99.90;;;;;;6132635;23;20017;-87
2023/09/02 02:09:50;;;;;;;18.67;15.68;;;15.60;99.90;;;;;;6132372;23;20016;-87
2023/09/02 02:12:17;;;;;;;16.20;9.90;;;15.70;99.90;;;;;;6157637;23;20117;-87
2023/09/02 02:14:45;;;;;;;17.08;15.32;;;15.70;99.90;;;;;;6157163;23;20096;-87
2023/09/02 02:17:11;;;;;;;15.25;9.55;;;15.70;99.90;;;;;;6157255;23;20355;-87
2023/09/02 02:19:37;;;;;;;17.63;15.68;;;15.70;99.90;;;;;;6131816;23;20017;-87
2023/09/02 02:22:03;;;;;;;19.63;16.92;;;15.70;99.90;;;;;;6156853;23;20013;-87
2023/09/02 02:24:28;;;;;;;18.20;10.48;;;15.80;99.90;;;;;;6157431;23;20013;-87
2023/09/02 02:26:54;;;;;;;18.77;11.48;;;15.70;99.90;;;;;;6133030;23;20130;-87
2023/09/02 02:29:20;;;;;;;20.65;18.48;;;15.70;99.90;;;;;;6156956;23;20447;-87
2023/09/02 02:31:46;;;;;;;22.90;20.58;;;15.70;99.90;;;;;;6157264;23;20013;-87
2023/09/02 02:34:11;;;;;;;17.52;12.10;;;15.80;99.90;;;;;;6157098;23;20477;-87
2023/09/02 02:36:37;;;;;;;24.30;21.85;;;15.80;99.90;;;;;;6132807;23;20398;-88
2023/09/02 02:39:04;;;;;;;16.58;11.18;;;15.80;99.90;;;;;;6156745;23;20048;-87
2023/09/02 02:41:31;;;;;;;19.92;17.83;;;15.80;99.90;;;;;;6157290;23;20020;-87
2023/09/02 02:43:57;;;;;;;20.23;17.88;;;15.80;99.90;;;;;;6157174;23;20014;-87
2023/09/02 02:46:22;;;;;;;19.38;15.88;;;15.80;99.90;;;;;;6157291;23;20023;-88
2023/09/02 02:48:48;;;;;;;18.60;16.73;;;15.90;99.90;;;;;;6156650;23;20079;-87
2023/09/02 02:51:13;;;;;;;16.52;9.68;;;15.90;99.90;;;;;;6156843;23;20045;-88
2023/09/02 02:53:39;;;;;;;18.73;16.83;;;15.80;99.90;;;;;;6157148;23;20025;-88
2023/09/02 02:56:04;;;;;;;16.77;10.35;;;15.80;99.90;;;;;;6157113;23;20359;-87
2023/09/02 02:58:32;;;;;;;21.63;18.33;;;15.80;99.90;;;;;;6156749;23;20088;-87
2023/09/02 03:01:09;;;;;;;21.58;19.38;;;15.80;99.90;;;;;;6132444;23;20087;-87
2023/09/02 03:03:35;;;;;;;17.10;11.00;;;15.80;99.90;;;;;;6157590;23;20359;-87
2023/09/02 03:06:05;;;;;;;17.73;12.43;;;15.80;99.90;;;;;;6156914;23;20537;-87
2023/09/02 03:08:31;;;;;;;22.48;20.08;;;15.70;99.90;;;;;;6132311;23;20013;-88
2023/09/02 03:11:07;;;;;;;22.35;20.05;;;15.80;99.90;;;;;;6158122;23;20052;-87
2023/09/02 03:13:33;;;;;;;17.77;11.90;;;15.80;99.90;;;;;;6159016;23;20013;-87
2023/09/02 03:16:01;;;;;;;18.25;12.65;;;15.80;99.90;;;;;;6158752;23;20020;-87
2023/09/02 03:18:27;;;;;;;18.10;10.75;;;15.70;99.90;;;;;;6158608;23;20084;-87
2023/09/02 03:20:53;;;;;;;20.42;18.23;;;15.70;99.90;;;;;;6157889;23;20009;-87
2023/09/02 03:23:19;;;;;;;20.25;18.13;;;15.70;99.90;;;;;;6133879;23;20005;-87
2023/09/02 03:25:44;;;;;;;19.73;17.77;;;15.80;99.90;;;;;;6158728;23;20358;-87
2023/09/02 03:28:10;;;;;;;22.17;20.08;;;15.80;99.90;;;;;;6133646;23;20207;-87
2023/09/02 03:30:37;;;;;;;18.35;11.90;;;15.90;99.90;;;;;;6158018;23;20036;-87
2023/09/02 03:33:03;;;;;;;21.60;19.40;;;15.80;99.90;;;;;;6133903;23;20016;-87
2023/09/02 03:35:28;;;;;;;22.83;20.30;;;15.80;99.90;;;;;;6157831;23;20017;-87
2023/09/02 03:37:54;;;;;;;21.08;18.85;;;15.90;99.90;;;;;;6158384;23;20019;-87
2023/09/02 03:40:19;;;;;;;19.55;11.98;;;15.90;99.90;;;;;;6158499;23;20017;-88
2023/09/02 03:42:45;;;;;;;21.52;19.42;;;15.80;99.90;;;;;;6158607;23;20013;-88
2023/09/02 03:45:11;;;;;;;21.25;19.15;;;15.80;99.90;;;;;;6157914;23;20039;-88
2023/09/02 03:47:37;;;;;;;15.63;11.15;;;15.90;99.90;;;;;;6133878;23;20099;-88
2023/09/02 03:50:03;;;;;;;22.27;20.15;;;15.80;99.90;;;;;;6157578;23;20455;-88
2023/09/02 03:52:29;;;;;;;23.42;20.58;;;15.80;99.90;;;;;;6134233;23;20009;-88
2023/09/02 03:54:56;;;;;;;19.13;11.68;;;15.90;99.90;;;;;;6133549;23;20012;-88
2023/09/02 03:57:21;;;;;;;22.88;20.58;;;15.80;99.90;;;;;;6158223;23;20012;-88
2023/09/02 03:59:47;;;;;;;22.45;20.20;;;15.80;99.90;;;;;;6158379;23;20016;-88
2023/09/02 04:02:13;;;;;;;24.45;22.10;;;15.90;99.90;;;;;;6158427;23;20092;-88
2023/09/02 04:04:39;;;;;;;18.92;12.90;;;15.90;99.90;;;;;;6158345;23;20038;-88
2023/09/02 04:07:05;;;;;;;18.75;12.82;;;15.90;99.90;;;;;;6158532;23;20024;-88
2023/09/02 04:09:31;;;;;;;25.77;23.38;;;15.80;99.90;;;;;;6158035;23;20359;-88
2023/09/02 04:11:58;;;;;;;28.77;25.80;;;15.90;99.90;;;;;;6133361;23;20347;-88
2023/09/02 04:14:24;;;;;;;26.42;23.85;;;15.90;99.90;;;;;;6158313;23;20020;-88
2023/09/02 04:16:51;;;;;;;26.88;24.25;;;15.90;99.90;;;;;;6158426;23;20390;-87
2023/09/02 04:19:17;;;;;;;29.00;26.13;;;16.00;99.90;;;;;;6133544;23;20009;-88
2023/09/02 04:21:44;;;;;;;24.85;22.30;;;16.00;99.90;;;;;;6158440;23;20458;-87
2023/09/02 04:24:09;;;;;;;29.02;26.05;;;16.00;99.90;;;;;;6158552;23;20013;-87
2023/09/02 04:26:35;;;;;;;17.98;12.63;;;16.00;99.90;;;;;;6158211;23;20088;-88
2023/09/02 04:29:00;;;;;;;23.67;21.38;;;15.90;99.90;;;;;;6133499;23;20009;-88
2023/09/02 04:31:26;;;;;;;25.55;22.98;;;15.90;99.90;;;;;;6133667;23;20067;-88
2023/09/02 04:33:52;;;;;;;18.42;12.77;;;16.00;99.90;;;;;;6158078;23;20013;-88
2023/09/02 04:36:17;;;;;;;19.05;13.55;;;15.90;99.90;;;;;;6158113;23;20072;-89
2023/09/02 04:38:43;;;;;;;30.85;27.83;;;15.90;99.90;;;;;;6158067;23;20013;-88
2023/09/02 04:41:09;;;;;;;21.55;15.25;;;15.90;99.90;;;;;;6157868;23;20067;-88
2023/09/02 04:43:35;;;;;;;27.90;25.10;;;15.90;99.90;;;;;;6133400;23;20517;-88
2023/09/02 04:46:02;;;;;;;27.15;24.48;;;16.00;99.90;;;;;;6132616;23;20068;-88
2023/09/02 04:48:28;;;;;;;30.40;27.30;;;16.00;99.90;;;;;;6157055;23;20009;-88
2023/09/02 04:50:54;;;;;;;29.30;26.58;;;16.00;99.90;;;;;;6157787;23;20017;-88
2023/09/02 04:53:20;;;;;;;31.70;28.63;;;16.00;99.90;;;;;;6158184;23;20013;-88
2023/09/02 04:55:46;;;;;;;29.83;27.00;;;16.10;99.90;;;;;;6157502;23;20581;-88
2023/09/02 04:58:12;;;;;;;20.05;15.15;;;16.10;99.90;;;;;;6132654;23;20044;-88
2023/09/02 05:00:38;;;;;;;27.73;15.85;;;16.00;99.90;;;;;;6157959;23;20016;-88
2023/09/02 05:03:04;;;;;;;28.55;25.77;;;16.00;99.90;;;;;;6133440;23;20088;-88
2023/09/02 05:05:31;;;;;;;21.17;15.32;;;16.00;99.90;;;;;;6157708;23;20017;-88
2023/09/02 05:07:57;;;;;;;23.58;17.23;;;16.00;99.90;;;;;;6157146;23;20059;-88
2023/09/02 05:10:23;;;;;;;31.17;27.92;;;16.00;99.90;;;;;;6157595;23;20008;-88
2023/09/02 05:12:48;;;;;;;21.88;15.57;;;16.00;99.90;;;;;;6133216;23;20045;-88
2023/09/02 05:15:14;;;;;;;31.40;28.25;;;16.00;99.90;;;;;;6157072;23;20049;-88
2023/09/02 05:17:39;;;;;;;26.08;17.33;;;16.00;99.90;;;;;;6157430;23;20088;-88
2023/09/02 05:20:06;;;;;;;29.15;26.17;;;16.10;99.90;;;;;;6132741;23;20009;-88
2023/09/02 05:22:32;;;;;;;31.92;28.92;;;16.10;99.90;;;;;;6157496;23;20097;-88
2023/09/02 05:24:58;;;;;;;31.27;28.17;;;16.10;99.90;;;;;;6157697;23;20040;-88
2023/09/02 05:27:24;;;;;;;28.60;26.02;;;16.20;99.90;;;;;;6133057;23;20482;-88
2023/09/02 05:29:49;;;;;;;28.25;25.58;;;16.20;99.90;;;;;;6157287;23;20451;-88
2023/09/02 05:32:16;;;;;;;23.38;16.48;;;16.20;99.90;;;;;;6157817;23;20096;-88
2023/09/02 05:34:42;;;;;;;21.05;15.75;;;16.10;99.90;;;;;;6132911;23;20019;-88
2023/09/02 05:37:08;;;;;;;23.00;17.80;;;16.10;99.90;;;;;;6133102;23;20417;-88
2023/09/02 05:39:34;;;;;;;31.98;28.88;;;16.00;99.90;;;;;;6156927;23;20359;-88
2023/09/02 05:41:59;;;;;;;24.33;15.57;;;16.10;99.90;;;;;;6157625;23;20407;-88
2023/09/02 05:44:25;;;;;;;21.05;14.82;;;16.10;99.90;;;;;;6133173;23;20009;-88
2023/09/02 05:46:50;;;;;;;34.75;31.35;;;16.00;99.90;;;;;;6157506;23;20045;-88
2023/09/02 05:49:16;;;;;;;33.75;30.42;;;16.10;99.90;;;;;;6157270;23;20023;-88
2023/09/02 05:51:42;;;;;;;34.40;30.90;;;16.10;99.90;;;;;;6157685;23;20051;-88
2023/09/02 05:54:09;;;;;;;32.22;29.05;;;16.20;99.90;;;;;;6157157;23;20021;-87
2023/09/02 05:56:38;;;;;;;32.35;29.10;;;16.20;99.90;;;;;;6157457;23;20021;-88
2023/09/02 05:59:05;;;;;;;35.13;31.63;;;16.20;99.90;;;;;;6157086;23;20009;-88
2023/09/02 06:01:31;;;;;;;34.85;31.05;;;16.30;99.90;;;;;;6157727;23;20020;-88
2023/09/02 06:03:57;;;;;;;24.02;17.02;;;16.30;99.90;;;;;;6157657;23;20378;-88
2023/09/02 06:06:23;;;;;;;26.02;20.38;;;16.20;99.90;;;;;;6131989;23;20350;-87
2023/09/02 06:08:49;;;;;;;24.27;16.65;;;16.20;99.90;;;;;;6157242;23;20009;-87
2023/09/02 06:11:15;;;;;;;35.00;31.42;;;16.10;99.90;;;;;;6132147;23;20517;-87
2023/09/02 06:13:41;;;;;;;27.17;20.15;;;16.20;99.90;;;;;;6157327;23;20024;-88
2023/09/02 06:16:07;;;;;;;33.90;30.40;;;16.20;99.90;;;;;;6157189;23;20015;-88
2023/09/02 06:18:35;;;;;;;35.15;31.38;;;16.20;99.90;;;;;;6157260;23;20020;-88
2023/09/02 06:21:13;;;;;;;24.92;17.60;;;16.30;99.90;;;;;;6157623;23;20016;-87
2023/09/02 06:23:45;;;;;;;25.80;17.05;;;16.30;99.90;;;;;;6157620;23;20009;-87
2023/09/02 06:26:11;;;;;;;36.85;32.65;;;16.20;99.90;;;;;;6132547;23;20447;-87
2023/09/02 06:28:38;;;;;;;33.88;30.48;;;16.30;99.90;;;;;;6157164;23;20013;-88
2023/09/02 06:31:10;;;;;;;25.73;16.63;;;16.30;99.90;;;;;;6132597;23;20346;-88
2023/09/02 06:33:36;;;;;;;30.98;20.63;;;16.30;99.90;;;;;;6157191;23;20024;-87
2023/09/02 06:36:12;;;;;;;24.85;19.00;;;16.30;99.90;;;;;;6156209;23;20013;-87
2023/09/02 06:38:38;;;;;;;30.13;21.05;;;16.30;99.90;;;;;;6156960;23;20088;-88
2023/09/02 06:41:16;;;;;;;34.72;30.98;;;16.30;99.90;;;;;;6157020;23;20063;-88
2023/09/02 06:43:42;;;;;;;35.97;32.25;;;16.40;99.90;;;;;;6183654;23;20040;-88
2023/09/02 06:46:12;;;;;;;27.23;19.52;;;16.40;99.90;;;;;;6136386;23;20013;-86
2023/09/02 06:48:37;;;;;;;33.85;30.27;;;16.40;99.90;;;;;;6158576;23;20095;-87
2023/09/02 06:51:03;;;;;;;34.97;31.38;;;16.40;99.90;;;;;;6159205;23;20020;-88
2023/09/02 06:53:28;;;;;;;23.92;17.05;;;16.50;99.90;;;;;;6159647;23;20474;-87
2023/09/02 06:55:54;;;;;;;33.22;29.83;;;16.40;99.90;;;;;;6158939;23;20354;-87
2023/09/02 06:58:20;;;;;;;24.20;16.35;;;16.50;99.90;;;;;;6158160;23;20354;-87
2023/09/02 07:00:45;;;;;;;29.13;19.50;;;16.40;99.90;;;;;;6157084;23;20095;-87
2023/09/02 07:03:11;;;;;;;35.65;31.52;;;16.40;99.90;;;;;;6157851;23;20009;-88
2023/09/02 07:05:37;;;;;;;27.60;18.40;;;16.50;99.90;;;;;;6132392;23;20709;-88
2023/09/02 07:08:03;;;;;;;35.72;31.65;;;16.50;99.90;;;;;;6157080;23;20020;-88
2023/09/02 07:10:28;;;;;;;37.80;34.00;;;16.50;99.90;;;;;;6158210;23;20092;-88
2023/09/02 07:12:54;;;;;;;35.28;31.58;;;16.50;99.90;;;;;;6158356;23;20029;-88
2023/09/02 07:15:20;;;;;;;32.90;29.40;;;16.60;99.90;;;;;;6158689;23;20068;-88
2023/09/02 07:17:46;;;;;;;22.77;14.45;;;16.50;99.90;;;;;;6185410;23;20032;-88
2023/09/02 07:20:12;;;;;;;33.20;29.65;;;16.50;99.90;;;;;;6158904;23;20013;-88
2023/09/02 07:22:38;;;;;;;26.45;18.20;;;16.50;99.90;;;;;;6158928;23;20009;-88
2023/09/02 07:25:06;;;;;;;33.53;30.13;;;16.60;99.90;;;;;;6134382;23;20031;-88
2023/09/02 07:27:32;;;;;;;29.38;18.30;;;16.60;99.90;;;;;;6159000;23;20009;-88
2023/09/02 07:30:01;;;;;;;28.02;19.83;;;16.60;99.90;;;;;;6133426;23;20071;-88
2023/09/02 07:32:27;;;;;;;35.08;31.27;;;16.50;99.90;;;;;;6157283;23;20056;-88
2023/09/02 07:34:52;;;;;;;24.88;19.33;;;16.60;99.90;;;;;;6157371;23;20013;-88
2023/09/02 07:37:18;;;;;;;34.90;31.52;;;16.60;99.90;;;;;;6158125;23;20013;-88
2023/09/02 07:39:43;;;;;;;28.42;18.13;;;16.60;99.90;;;;;;6158077;23;20239;-88
2023/09/02 07:42:09;;;;;;;36.70;32.80;;;16.60;99.90;;;;;;6158898;23;20096;-87
2023/09/02 07:44:35;;;;;;;25.52;16.88;;;16.60;99.90;;;;;;6133362;23;20113;-88
2023/09/02 07:47:00;;;;;;;37.15;33.45;;;16.60;99.90;;;;;;6158265;23;20025;-87
2023/09/02 07:49:26;;;;;;;26.20;18.52;;;16.70;99.90;;;;;;6157811;23;20509;-88
2023/09/02 07:51:52;;;;;;;34.30;30.70;;;16.70;99.90;;;;;;6157631;23;20024;-88
2023/09/02 07:54:17;;;;;;;34.85;31.23;;;16.70;99.90;;;;;;6131703;23;20028;-87
2023/09/02 07:56:43;;;;;;;33.20;29.25;;;16.80;99.90;;;;;;6157006;23;20362;-87
2023/09/02 07:59:09;;;;;;;35.33;31.70;;;16.80;99.90;;;;;;6132836;23;20009;-88
2023/09/02 08:01:34;;;;;;;37.92;33.67;;;16.80;99.90;;;;;;6158425;23;20092;-87
2023/09/02 08:04:00;;;;;;;25.67;16.55;;;16.90;99.90;;;;;;6157698;23;20101;-87
2023/09/02 08:06:25;;;;;;;31.10;27.90;;;16.80;99.90;;;;;;6158339;23;20013;-87
2023/09/02 08:08:54;;;;;;;30.13;27.00;;;16.80;99.90;;;;;;6133308;23;20013;-87
2023/09/02 08:11:20;;;;;;;33.58;27.95;;;16.90;99.90;;;;;;6158189;23;20013;-87
2023/09/02 08:13:46;;;;;;;29.75;26.52;;;16.90;99.90;;;;;;6158325;23;20048;-86
2023/09/02 08:16:11;;;;;;;22.85;14.85;;;16.90;99.90;;;;;;6133428;23;20009;-87
2023/09/02 08:18:37;;;;;;;29.98;25.20;;;16.90;99.90;;;;;;6133672;23;20005;-87
2023/09/02 08:21:10;;;;;;;24.77;17.90;;;16.90;99.90;;;;;;6158151;23;20013;-87
2023/09/02 08:23:38;;;;;;;29.98;26.00;;;16.90;99.90;;;;;;6133855;23;20071;-87
2023/09/02 08:26:14;;;;;;;22.23;15.32;;;16.90;99.90;;;;;;6156601;23;20059;-86
2023/09/02 08:28:41;;;;;;;27.90;24.83;;;16.90;99.90;;;;;;6129970;23;20067;-87
2023/09/02 08:31:09;;;;;;;29.65;25.75;;;17.00;99.90;;;;;;6154683;23;20052;-88
2023/09/02 08:33:35;;;;;;;23.92;16.38;;;17.00;99.90;;;;;;6154956;23;20141;-87
2023/09/02 08:36:01;;;;;;;27.58;24.73;;;17.00;99.90;;;;;;6129797;23;20021;-87
2023/09/02 08:38:26;;;;;;;29.98;24.50;;;17.10;99.90;;;;;;6129952;23;20354;-87
2023/09/02 08:40:53;;;;;;;29.98;23.80;;;17.20;99.90;;;;;;6129973;23;20071;-87
2023/09/02 08:43:20;;;;;;;27.08;24.02;;;17.30;99.90;;;;;;6154751;23;20013;-87
2023/09/02 08:45:50;;;;;;;27.85;23.35;;;17.30;99.90;;;;;;6154876;23;20036;-87
2023/09/02 08:48:23;;;;;;;23.42;14.23;;;17.40;99.90;;;;;;6154446;23;20013;-87
2023/09/02 08:50:51;;;;;;;29.70;25.05;;;17.30;99.90;;;;;;6154984;23;20063;-87
2023/09/02 08:53:17;;;;;;;25.23;22.45;;;17.30;99.90;;;;;;6158028;23;20017;-87
2023/09/02 08:55:46;;;;;;;26.50;22.25;;;17.40;99.90;;;;;;6157459;23;20063;-87
2023/09/02 08:58:13;;;;;;;29.10;23.02;;;17.40;99.90;;;;;;6132968;23;20036;-87
2023/09/02 09:00:41;;;;;;;26.20;23.13;;;17.40;99.90;;;;;;6133307;23;20016;-87
2023/09/02 09:03:11;;;;;;;27.30;23.25;;;17.40;99.90;;;;;;6158096;23;20009;-88
2023/09/02 09:05:39;;;;;;;25.73;15.57;;;17.40;99.90;;;;;;6157347;23;20013;-88
2023/09/02 09:08:05;;;;;;;25.50;22.73;;;17.40;99.90;;;;;;6132670;23;20091;-88
2023/09/02 09:10:34;;;;;;;27.38;19.65;;;17.50;99.90;;;;;;6132701;23;20017;-88
2023/09/02 09:13:04;;;;;;;30.20;26.08;;;17.50;99.90;;;;;;6158093;23;20016;-88
2023/09/02 09:15:31;;;;;;;33.90;26.90;;;17.50;99.90;;;;;;6157523;23;20109;-88
2023/09/02 09:17:56;;;;;;;32.60;29.00;;;17.60;99.90;;;;;;6157519;23;20040;-87
2023/09/02 09:20:22;;;;;;;33.25;27.15;;;17.60;99.90;;;;;;6157603;23;20071;-86
2023/09/02 09:22:50;;;;;;;32.30;28.90;;;17.70;99.90;;;;;;6157279;23;20092;-87
2023/09/02 09:25:16;;;;;;;30.73;27.60;;;17.70;99.90;;;;;;6156808;23;20009;-87
2023/09/02 09:27:42;;;;;;;34.03;28.35;;;17.80;99.90;;;;;;6157312;23;20092;-88
2023/09/02 09:30:26;;;;;;;34.20;30.63;;;17.80;99.90;;;;;;6132631;23;20044;-88
2023/09/02 09:33:01;;;;;;;35.20;31.63;;;17.80;99.90;;;;;;6157307;23;20009;-88
2023/09/02 09:35:27;;;;;;;26.42;22.40;;;17.80;99.90;;;;;;6157199;23;20013;-89
2023/09/02 09:37:56;;;;;;;33.60;29.92;;;17.80;99.90;;;;;;6157244;23;20013;-87
2023/09/02 09:40:33;;;;;;;32.47;28.98;;;17.90;99.90;;;;;;6157432;23;20041;-87
2023/09/02 09:42:59;;;;;;;32.83;29.48;;;17.90;99.90;;;;;;6157513;23;20032;-88
2023/09/02 09:45:26;;;;;;;30.38;27.30;;;18.00;99.90;;;;;;6132613;23;20024;-88
2023/09/02 09:47:52;;;;;;;31.88;28.60;;;18.00;99.90;;;;;;6157817;23;20059;-88
2023/09/02 09:50:18;;;;;;;33.55;30.15;;;18.10;99.90;;;;;;6132850;23;20013;-87
2023/09/02 09:53:01;;;;;;;31.13;27.77;;;18.10;99.90;;;;;;6157672;23;20355;-87
2023/09/02 09:55:27;;;;;;;29.52;26.42;;;18.20;99.90;;;;;;6157143;23;20470;-87
2023/09/02 09:57:57;;;;;;;23.55;17.67;;;18.20;99.90;;;;;;6157406;23;20009;-87
2023/09/02 10:00:23;;;;;;;28.70;25.63;;;18.20;99.90;;;;;;6132762;23;20009;-88
2023/09/02 10:02:57;;;;;;;29.05;26.13;;;18.30;99.90;;;;;;6157731;23;20035;-88
2023/09/02 10:05:31;;;;;;;25.77;23.08;;;18.30;99.90;;;;;;6157520;23;20505;-88
2023/09/02 10:08:00;;;;;;;29.40;24.73;;;18.40;99.90;;;;;;6132955;23;20041;-88
2023/09/02 10:10:35;;;;;;;27.65;24.20;;;18.40;99.90;;;;;;6157119;23;20020;-88
2023/09/02 10:13:01;;;;;;;26.15;23.52;;;18.50;99.90;;;;;;6156646;23;20005;-88
2023/09/02 10:15:28;;;;;;;26.63;23.63;;;18.50;99.90;;;;;;6156967;23;20009;-87
2023/09/02 10:17:58;;;;;;;25.60;22.95;;;18.60;99.90;;;;;;6156993;23;20009;-88
2023/09/02 10:20:35;;;;;;;24.23;21.73;;;18.70;99.90;;;;;;6158563;23;20104;-88
2023/09/02 10:23:05;;;;;;;26.42;23.83;;;18.80;99.90;;;;;;6159156;23;20105;-88
2023/09/02 10:25:50;;;;;;;25.73;23.13;;;18.90;99.90;;;;;;6159213;23;20009;-88
2023/09/02 10:28:21;;;;;;;24.30;21.95;;;19.00;99.90;;;;;;6159063;23;20371;-88
2023/09/02 10:30:48;;;;;;;23.88;21.35;;;19.00;99.90;;;;;;6159196;23;20056;-89
2023/09/02 10:33:32;;;;;;;24.00;21.20;;;19.20;99.90;;;;;;6134367;23;20020;-89
2023/09/02 10:36:02;;;;;;;24.63;22.00;;;19.30;99.90;;;;;;6134308;23;20013;-89
2023/09/02 10:38:36;;;;;;;23.08;20.75;;;19.40;99.90;;;;;;6159163;23;20013;-89
2023/09/02 10:41:16;;;;;;;22.73;20.02;;;19.60;99.90;;;;;;6159240;23;20395;-89
2023/09/02 10:43:42;;;;;;;22.20;19.67;;;19.70;99.90;;;;;;6134588;23;20009;-89
2023/09/02 10:46:09;;;;;;;21.33;18.00;;;19.70;99.90;;;;;;6159014;23;20426;-89
2023/09/02 10:48:37;;;;;;;23.88;20.13;;;19.80;99.90;;;;;;6134359;23;20025;-88
2023/09/02 10:51:04;;;;;;;22.67;20.27;;;19.90;99.90;;;;;;6159014;23;20071;-89
2023/09/02 10:53:50;;;;;;;22.35;19.33;;;20.00;99.90;;;;;;6159071;23;20013;-89
2023/09/02 10:56:36;;;;;;;21.00;17.17;;;20.10;99.90;;;;;;6158573;23;20049;-89
2023/09/02 10:59:02;;;;;;;20.95;17.05;;;20.10;99.90;;;;;;6158921;23;20065;-88
2023/09/02 11:01:48;;;;;;;21.13;16.52;;;20.10;99.90;;;;;;6134729;23;20020;-89
2023/09/02 11:04:59;;;;;;;20.33;16.50;;;20.10;99.90;;;;;;6159319;23;20020;-90
2023/09/02 11:07:25;;;;;;;19.35;16.60;;;20.10;99.90;;;;;;6127062;23;20021;-89
2023/09/02 11:09:51;;;;;;;20.00;16.40;;;20.10;99.90;;;;;;6158510;23;20020;-89
2023/09/02 11:12:17;;;;;;;19.23;16.00;;;20.20;99.90;;;;;;6158937;23;20040;-89
2023/09/02 11:15:08;;;;;;;18.70;15.27;;;20.30;99.90;;;;;;6158799;23;20067;-89
2023/09/02 11:17:39;;;;;;;19.77;15.30;;;20.40;99.90;;;;;;6158805;23;20017;-89
2023/09/02 11:20:09;;;;;;;21.83;15.80;;;20.50;99.90;;;;;;6134022;23;20013;-89
2023/09/02 11:22:51;;;;;;;18.25;15.68;;;20.60;99.90;;;;;;6159360;23;20076;-89
2023/09/02 11:25:30;;;;;;;18.45;15.05;;;20.80;99.90;;;;;;6158767;23;20013;-89
2023/09/02 11:27:58;;;;;;;18.25;14.57;;;20.90;99.90;;;;;;6134017;23;20013;-89
2023/09/02 11:30:25;;;;;;;18.23;14.65;;;21.00;99.90;;;;;;6158519;23;20012;-89
2023/09/02 11:32:52;;;;;;;17.67;14.82;;;21.00;99.90;;;;;;6157574;23;20008;-89
2023/09/02 11:35:27;;;;;;;16.30;13.38;;;21.00;99.90;;;;;;6155510;23;20542;-89
2023/09/02 11:37:53;;;;;;;17.95;15.23;;;21.10;99.90;;;;;;6154758;23;20464;-89
2023/09/02 11:40:21;;;;;;;18.85;15.93;;;21.10;99.90;;;;;;6155059;23;20005;-89
2023/09/02 11:42:52;;;;;;;20.00;16.30;;;21.20;99.90;;;;;;6155507;23;20460;-90
2023/09/02 11:45:18;;;;;;;19.60;14.68;;;21.20;99.90;;;;;;6155228;23;20017;-89
2023/09/02 11:47:44;;;;;;;20.30;15.00;;;21.30;99.90;;;;;;6130708;23;20016;-89
2023/09/02 11:50:18;;;;;;;19.40;16.65;;;21.40;99.90;;;;;;6154893;23;20016;-90
2023/09/02 11:52:44;;;;;;;18.60;14.88;;;21.50;99.90;;;;;;6130909;23;20413;-89
2023/09/02 11:55:16;;;;;;;17.35;13.75;;;21.50;99.90;;;;;;6163804;23;20016;-85
2023/09/02 11:57:42;;;;;;;;;;;21.60;99.90;;;;;;6164155;23;20013;-88
2023/09/02 12:00:17;;;;;;;17.65;13.20;;;21.60;99.90;;;;;;6158765;23;19912;-87
2023/09/02 12:02:45;;;;;;;15.75;12.80;;;21.70;99.90;;;;;;6135372;23;20019;-89
2023/09/02 12:05:11;;;;;;;19.02;13.20;;;21.90;99.90;;;;;;6135379;23;20015;-89
2023/09/02 12:07:37;;;;;;;18.65;13.23;;;22.00;99.90;;;;;;6134797;23;20013;-89
2023/09/02 12:10:09;;;;;;;16.08;12.68;;;22.10;99.90;;;;;;6157942;23;20391;-89
2023/09/02 12:12:40;;;;;;;15.90;12.75;;;22.10;99.90;;;;;;6157972;23;20013;-89
2023/09/02 12:15:06;;;;;;;17.55;11.07;;;22.20;99.90;;;;;;6134059;23;20027;-89
2023/09/02 12:17:32;;;;;;;15.50;11.57;;;22.40;99.90;;;;;;6133816;23;20112;-89
2023/09/02 12:19:58;;;;;;;16.10;11.77;;;22.60;99.90;;;;;;6158050;23;20513;-89
2023/09/02 12:22:24;;;;;;;15.20;11.68;;;22.80;99.90;;;;;;6132438;23;20009;-89
2023/09/02 12:24:50;;;;;;;15.27;10.88;;;23.00;99.90;;;;;;6157974;23;20067;-89
2023/09/02 12:27:16;;;;;;;14.05;11.45;;;23.20;99.90;;;;;;6158466;23;20013;-90
2023/09/02 12:29:55;;;;;;;15.75;10.25;;;23.40;99.90;;;;;;6157843;23;20009;-91
2023/09/02 12:32:21;;;;;;;14.52;10.35;;;23.60;99.90;;;;;;6158189;23;20013;-90